createdAt,value
2017-04-19T00:00:12.916Z,91.80
2017-04-19T00:01:12.381Z,91.80
2017-04-19T00:02:11.900Z,91.70
2017-04-19T00:03:11.347Z,91.80
2017-04-19T00:04:12.249Z,91.90
2017-04-19T00:05:12.548Z,91.90
2017-04-19T00:06:12.018Z,91.90
2017-04-19T00:07:11.525Z,91.90
2017-04-19T00:08:10.995Z,92.00
2017-04-19T00:09:11.261Z,92.10
2017-04-19T00:17:18.876Z,91.90
2017-04-19T00:18:18.372Z,91.90
2017-04-19T00:19:17.823Z,92.00
2017-04-19T00:20:17.268Z,92.10
2017-04-19T00:21:16.744Z,92.10
2017-04-19T00:22:16.203Z,92.20
2017-04-19T00:23:15.713Z,92.20
2017-04-19T00:24:15.176Z,92.20
2017-04-19T00:25:14.688Z,92.10
2017-04-19T00:26:14.443Z,92.20
2017-04-19T00:27:14.343Z,92.20
2017-04-19T00:28:13.891Z,92.30
2017-04-19T00:29:13.731Z,92.40
2017-04-19T00:30:13.213Z,92.70
2017-04-19T00:31:13.424Z,92.40
2017-04-19T00:32:12.886Z,92.50
2017-04-19T00:33:12.361Z,92.50
2017-04-19T00:34:11.839Z,92.50
2017-04-19T00:35:11.519Z,92.60
2017-04-19T00:36:10.995Z,92.40
2017-04-19T00:37:10.501Z,92.60
2017-04-19T00:38:09.988Z,92.60
2017-04-19T00:39:10.198Z,92.70
2017-04-19T00:40:10.391Z,92.60
2017-04-19T00:41:10.260Z,92.70
2017-04-19T00:42:09.744Z,92.80
2017-04-19T00:43:09.213Z,92.90
2017-04-19T00:44:08.721Z,93.00
2017-04-19T00:45:08.171Z,92.80
2017-04-19T00:46:07.640Z,92.70
2017-04-19T00:47:07.259Z,92.80
2017-04-19T00:48:06.823Z,92.80
2017-04-19T00:49:06.280Z,92.80
2017-04-19T00:50:06.489Z,92.90
2017-04-19T00:51:06.706Z,92.80
2017-04-19T00:52:06.956Z,93.00
2017-04-19T00:53:06.462Z,93.00
2017-04-19T00:54:05.902Z,92.90
2017-04-19T00:55:06.240Z,92.90
2017-04-19T00:56:05.785Z,92.90
2017-04-19T00:57:05.318Z,92.80
2017-04-19T00:58:04.905Z,93.30
2017-04-19T00:59:04.383Z,93.00
2017-04-19T01:00:03.912Z,93.00
2017-04-19T01:01:03.497Z,93.00
2017-04-19T01:02:03.042Z,93.20
2017-04-19T01:03:02.535Z,93.00
2017-04-19T01:04:02.167Z,93.00
2017-04-19T01:05:01.603Z,93.00
2017-04-19T01:06:01.100Z,93.00
2017-04-19T01:07:00.612Z,93.00
2017-04-19T01:08:00.078Z,93.10
2017-04-19T01:08:59.539Z,93.20
2017-04-19T01:09:59.289Z,93.20
2017-04-19T01:10:58.755Z,93.10
2017-04-19T01:11:58.261Z,93.20
2017-04-19T01:12:57.716Z,93.20
2017-04-19T01:13:57.220Z,93.30
2017-04-19T01:14:56.728Z,93.30
2017-04-19T01:15:56.544Z,93.30
2017-04-19T01:16:57.184Z,93.20
2017-04-19T01:17:56.735Z,93.20
2017-04-19T01:18:57.008Z,93.10
2017-04-19T01:19:56.534Z,93.10
2017-04-19T01:20:56.036Z,93.00
2017-04-19T01:21:56.286Z,93.10
2017-04-19T01:22:55.885Z,93.10
2017-04-19T01:23:55.339Z,93.00
2017-04-19T01:24:55.598Z,93.00
2017-04-19T01:25:55.151Z,92.80
2017-04-19T01:26:55.684Z,92.90
2017-04-19T01:27:56.188Z,92.90
2017-04-19T01:28:55.834Z,92.90
2017-04-19T01:29:55.337Z,92.80
2017-04-19T01:30:54.781Z,92.80
2017-04-19T01:31:55.107Z,92.90
2017-04-19T01:32:54.671Z,92.80
2017-04-19T01:33:54.140Z,92.70
2017-04-19T01:34:53.627Z,92.70
2017-04-19T01:35:53.106Z,92.70
2017-04-19T01:36:52.571Z,92.70
2017-04-19T01:37:52.988Z,92.70
2017-04-19T01:38:52.512Z,92.70
2017-04-19T01:39:52.009Z,92.80
2017-04-19T01:40:51.475Z,92.90
2017-04-19T01:41:50.971Z,92.80
2017-04-19T01:42:50.712Z,92.90
2017-04-19T01:43:50.935Z,92.80
2017-04-19T01:44:51.138Z,92.90
2017-04-19T01:45:50.583Z,93.00
2017-04-19T01:46:50.234Z,93.10
2017-04-19T01:47:49.721Z,93.10
2017-04-19T01:48:49.201Z,93.00
2017-04-19T01:49:48.712Z,93.10
2017-04-19T01:50:48.148Z,93.10
2017-04-19T01:51:47.628Z,93.20
2017-04-19T01:52:47.109Z,93.10
2017-04-19T01:53:46.549Z,93.10
2017-04-19T01:54:46.008Z,93.10
2017-04-19T01:55:45.844Z,93.10
2017-04-19T01:56:45.297Z,93.10
2017-04-19T01:57:44.762Z,93.10
2017-04-19T01:58:44.192Z,93.20
2017-04-19T01:59:43.666Z,93.20
2017-04-19T02:00:43.104Z,93.20
2017-04-19T02:01:44.459Z,93.20
2017-04-19T02:02:44.368Z,93.20
2017-04-19T02:03:43.891Z,93.30
2017-04-19T02:04:43.358Z,93.20
2017-04-19T02:05:46.985Z,93.30
2017-04-19T02:06:48.996Z,93.20
2017-04-19T02:07:48.531Z,93.30
2017-04-19T02:08:48.756Z,93.20
2017-04-19T02:09:48.220Z,93.20
2017-04-19T02:10:47.736Z,93.10
2017-04-19T02:11:47.213Z,93.10
2017-04-19T02:12:46.878Z,93.10
2017-04-19T02:13:46.355Z,93.10
2017-04-19T02:14:45.812Z,93.10
2017-04-19T02:15:45.310Z,93.40
2017-04-19T02:16:44.806Z,93.10
2017-04-19T02:17:44.270Z,93.10
2017-04-19T02:18:44.142Z,93.20
2017-04-19T02:19:44.351Z,93.20
2017-04-19T02:20:43.835Z,93.20
2017-04-19T02:21:43.308Z,93.30
2017-04-19T02:22:42.757Z,93.20
2017-04-19T02:23:42.237Z,93.20
2017-04-19T02:24:41.936Z,93.10
2017-04-19T02:25:41.399Z,93.20
2017-04-19T02:26:40.898Z,93.20
2017-04-19T02:27:40.358Z,93.30
2017-04-19T02:28:39.980Z,93.30
2017-04-19T02:29:39.479Z,93.30
2017-04-19T02:30:39.426Z,93.20
2017-04-19T02:31:38.982Z,93.20
2017-04-19T02:32:40.349Z,93.30
2017-04-19T02:33:39.971Z,93.30
2017-04-19T02:34:39.515Z,93.30
2017-04-19T02:35:39.044Z,93.30
2017-04-19T02:36:38.604Z,93.30
2017-04-19T02:37:38.124Z,93.30
2017-04-19T02:38:38.333Z,93.40
2017-04-19T02:39:38.545Z,93.40
2017-04-19T02:40:38.856Z,93.50
2017-04-19T02:41:39.208Z,93.40
2017-04-19T02:42:38.717Z,93.40
2017-04-19T02:43:38.248Z,93.30
2017-04-19T02:44:37.904Z,93.30
2017-04-19T02:45:37.356Z,93.30
2017-04-19T02:46:36.884Z,93.30
2017-04-19T02:47:36.350Z,93.30
2017-04-19T02:48:35.859Z,93.30
2017-04-19T02:49:35.341Z,93.30
2017-04-19T02:50:34.807Z,93.30
2017-04-19T02:51:34.330Z,93.30
2017-04-19T02:52:33.833Z,93.30
2017-04-19T02:53:33.311Z,93.40
2017-04-19T02:54:33.532Z,93.40
2017-04-19T02:55:33.065Z,93.40
2017-04-19T02:56:32.505Z,93.30
2017-04-19T02:57:32.000Z,93.40
2017-04-19T02:58:32.419Z,93.50
2017-04-19T02:59:31.980Z,93.40
2017-04-19T03:00:31.440Z,93.50
2017-04-19T03:01:30.946Z,93.40
2017-04-19T03:02:34.120Z,93.40
2017-04-19T03:03:33.882Z,93.30
2017-04-19T03:04:34.120Z,93.30
2017-04-19T03:05:33.571Z,93.20
2017-04-19T03:06:33.720Z,93.30
2017-04-19T03:07:33.171Z,93.30
2017-04-19T03:08:32.645Z,93.30
2017-04-19T03:09:32.357Z,93.30
2017-04-19T03:10:31.910Z,93.30
2017-04-19T03:11:31.381Z,93.40
2017-04-19T03:12:30.902Z,93.40
2017-04-19T03:13:30.372Z,93.30
2017-04-19T03:14:30.610Z,93.30
2017-04-19T03:15:30.544Z,93.20
2017-04-19T03:16:30.700Z,93.20
2017-04-19T03:17:32.277Z,93.20
2017-04-19T03:18:32.088Z,93.10
2017-04-19T03:19:31.644Z,93.10
2017-04-19T03:20:31.458Z,92.90
2017-04-19T03:21:31.696Z,93.10
2017-04-19T03:22:31.184Z,93.20
2017-04-19T03:23:31.627Z,93.20
2017-04-19T03:24:31.918Z,93.30
2017-04-19T03:25:31.389Z,93.20
2017-04-19T03:26:30.848Z,93.20
2017-04-19T03:27:30.329Z,93.20
2017-04-19T03:28:29.870Z,93.20
2017-04-19T03:29:29.406Z,93.30
2017-04-19T03:30:30.147Z,93.60
2017-04-19T03:31:30.465Z,93.60
2017-04-19T03:32:30.670Z,93.80
2017-04-19T03:33:30.216Z,93.90
2017-04-19T03:34:29.689Z,94.00
2017-04-19T03:35:29.919Z,94.00
2017-04-19T03:36:29.430Z,93.90
2017-04-19T03:37:28.917Z,93.70
2017-04-19T03:38:28.375Z,93.70
2017-04-19T03:39:27.904Z,93.70
2017-04-19T03:40:27.407Z,93.70
2017-04-19T03:41:26.871Z,93.60
2017-04-19T03:42:26.357Z,93.60
2017-04-19T03:43:25.890Z,93.60
2017-04-19T03:44:25.598Z,93.70
2017-04-19T03:45:25.084Z,93.90
2017-04-19T03:46:24.601Z,93.90
2017-04-19T03:47:24.101Z,94.00
2017-04-19T03:48:23.635Z,94.00
2017-04-19T03:49:23.144Z,93.80
2017-04-19T03:50:22.680Z,93.80
2017-04-19T03:51:22.894Z,93.70
2017-04-19T03:52:22.386Z,93.60
2017-04-19T03:53:21.873Z,93.50
2017-04-19T03:54:21.647Z,93.30
2017-04-19T03:55:21.135Z,93.30
2017-04-19T03:56:21.348Z,93.30
2017-04-19T03:57:20.795Z,93.30
2017-04-19T03:58:20.380Z,93.30
2017-04-19T03:59:19.876Z,93.50
2017-04-19T04:00:19.553Z,93.20
2017-04-19T04:01:19.029Z,93.20
2017-04-19T04:02:18.468Z,93.20
2017-04-19T04:03:17.979Z,93.30
2017-04-19T04:04:17.484Z,93.20
2017-04-19T04:05:16.968Z,93.20
2017-04-19T04:06:16.708Z,93.20
2017-04-19T04:07:16.188Z,93.10
2017-04-19T04:08:15.664Z,93.10
2017-04-19T04:09:15.135Z,93.00
2017-04-19T04:10:14.619Z,93.00
2017-04-19T04:11:14.131Z,93.00
2017-04-19T04:12:13.676Z,93.00
2017-04-19T04:13:13.733Z,93.00
2017-04-19T04:14:13.261Z,93.00
2017-04-19T04:15:13.523Z,93.10
2017-04-19T04:16:13.052Z,93.00
2017-04-19T04:17:12.836Z,93.10
2017-04-19T04:18:12.423Z,93.00
2017-04-19T04:19:11.884Z,92.90
2017-04-19T04:20:11.338Z,92.80
2017-04-19T04:21:11.251Z,92.80
2017-04-19T04:22:10.743Z,92.80
2017-04-19T04:23:10.404Z,92.80
2017-04-19T04:24:09.947Z,92.80
2017-04-19T04:25:10.192Z,92.90
2017-04-19T04:26:09.648Z,92.90
2017-04-19T04:27:09.233Z,93.00
2017-04-19T04:28:08.815Z,93.00
2017-04-19T04:29:08.386Z,92.90
2017-04-19T04:30:07.922Z,92.80
2017-04-19T04:31:07.448Z,92.80
2017-04-19T04:32:07.628Z,92.70
2017-04-19T04:33:07.124Z,92.80
2017-04-19T04:34:06.607Z,92.90
2017-04-19T04:35:06.459Z,92.90
2017-04-19T04:36:06.122Z,93.30
2017-04-19T04:37:05.614Z,93.20
2017-04-19T04:38:05.212Z,93.20
2017-04-19T04:39:05.279Z,93.10
2017-04-19T04:40:04.764Z,93.00
2017-04-19T04:41:04.516Z,93.20
2017-04-19T04:42:04.015Z,93.60
2017-04-19T04:43:03.530Z,93.90
2017-04-19T04:44:02.987Z,94.00
2017-04-19T04:45:05.160Z,94.10
2017-04-19T04:46:04.655Z,94.10
2017-04-19T04:47:04.141Z,94.10
2017-04-19T04:48:03.605Z,94.10
2017-04-19T04:49:03.098Z,94.00
2017-04-19T04:50:02.525Z,93.70
2017-04-19T04:51:02.012Z,94.00
2017-04-19T04:52:01.856Z,94.20
2017-04-19T04:53:01.329Z,94.10
2017-04-19T04:54:00.824Z,94.10
2017-04-19T04:55:01.042Z,93.70
2017-04-19T04:56:01.438Z,94.00
2017-04-19T04:57:01.035Z,94.20
2017-04-19T04:58:00.573Z,94.40
2017-04-19T04:59:00.028Z,94.60
2017-04-19T04:59:59.539Z,94.70
2017-04-19T05:00:59.042Z,94.80
2017-04-19T05:01:59.243Z,94.80
2017-04-19T05:02:59.608Z,95.00
2017-04-19T05:03:59.069Z,95.00
2017-04-19T05:04:58.522Z,94.90
2017-04-19T05:05:58.027Z,94.70
2017-04-19T05:06:57.542Z,94.50
2017-04-19T05:07:57.033Z,94.50
2017-04-19T05:08:56.543Z,94.90
2017-04-19T05:09:56.018Z,95.10
2017-04-19T05:10:55.499Z,94.60
2017-04-19T05:11:54.993Z,93.90
2017-04-19T05:12:54.427Z,93.10
2017-04-19T05:13:53.957Z,92.70
2017-04-19T05:14:53.714Z,92.40
2017-04-19T05:15:53.171Z,92.20
2017-04-19T05:16:52.675Z,92.10
2017-04-19T05:17:52.143Z,92.20
2017-04-19T05:18:51.632Z,92.10
2017-04-19T05:19:51.095Z,92.00
2017-04-19T05:20:50.920Z,92.00
2017-04-19T05:21:50.397Z,92.00
2017-04-19T05:22:49.861Z,92.00
2017-04-19T05:23:49.367Z,92.00
2017-04-19T05:24:48.884Z,92.00
2017-04-19T05:25:48.363Z,91.90
2017-04-19T05:26:48.066Z,92.00
2017-04-19T05:27:47.551Z,92.20
2017-04-19T05:28:47.140Z,92.30
2017-04-19T05:29:47.418Z,92.50
2017-04-19T05:30:46.959Z,92.60
2017-04-19T05:31:46.711Z,93.10
2017-04-19T05:32:46.574Z,92.50
2017-04-19T05:33:46.096Z,92.10
2017-04-19T05:34:46.365Z,91.90
2017-04-19T05:35:46.792Z,92.00
2017-04-19T05:36:46.572Z,92.10
2017-04-19T05:37:46.079Z,92.20
2017-04-19T05:38:46.304Z,92.30
2017-04-19T05:39:45.801Z,92.00
2017-04-19T05:40:45.378Z,92.10
2017-04-19T05:41:44.820Z,92.30
2017-04-19T05:42:44.296Z,92.00
2017-04-19T05:43:43.985Z,91.80
2017-04-19T05:44:43.816Z,91.60
2017-04-19T05:45:43.442Z,91.60
2017-04-19T05:46:42.898Z,91.60
2017-04-19T05:47:42.947Z,91.70
2017-04-19T05:48:43.353Z,92.40
2017-04-19T05:49:42.877Z,92.10
2017-04-19T05:50:42.375Z,92.00
2017-04-19T05:51:41.869Z,92.20
2017-04-19T05:52:41.375Z,91.90
2017-04-19T05:53:40.884Z,91.70
2017-04-19T05:54:40.427Z,91.80
2017-04-19T05:55:39.930Z,91.80
2017-04-19T05:56:40.185Z,91.90
2017-04-19T05:57:39.658Z,91.90
2017-04-19T05:58:39.225Z,91.60
2017-04-19T05:59:38.711Z,91.60
2017-04-19T06:00:38.219Z,91.50
2017-04-19T06:01:37.673Z,91.40
2017-04-19T06:02:37.133Z,91.50
2017-04-19T06:03:36.631Z,91.50
2017-04-19T06:04:36.356Z,91.60
2017-04-19T06:05:35.816Z,91.70
2017-04-19T06:06:36.187Z,91.80
2017-04-19T06:07:35.651Z,92.00
2017-04-19T06:08:41.570Z,91.40
2017-04-19T06:09:42.068Z,91.10
2017-04-19T06:10:41.573Z,91.20
2017-04-19T06:11:41.095Z,91.10
2017-04-19T06:12:40.672Z,91.00
2017-04-19T06:13:40.168Z,90.90
2017-04-19T06:14:40.368Z,90.90
2017-04-19T06:15:39.876Z,91.10
2017-04-19T06:16:40.108Z,90.90
2017-04-19T06:17:39.676Z,90.90
2017-04-19T06:18:39.132Z,90.90
2017-04-19T06:19:38.621Z,91.00
2017-04-19T06:20:38.083Z,90.80
2017-04-19T06:21:37.551Z,90.50
2017-04-19T06:22:37.805Z,90.40
2017-04-19T06:23:37.285Z,90.60
2017-04-19T06:24:36.764Z,90.50
2017-04-19T06:25:36.221Z,90.30
2017-04-19T06:26:35.683Z,90.30
2017-04-19T06:27:35.096Z,90.20
2017-04-19T06:28:34.851Z,90.00
2017-04-19T06:29:34.413Z,89.60
2017-04-19T06:30:33.868Z,89.60
2017-04-19T06:31:34.177Z,89.80
2017-04-19T06:32:33.659Z,90.50
2017-04-19T06:33:33.112Z,90.60
2017-04-19T06:34:32.845Z,90.00
2017-04-19T06:35:32.360Z,91.50
2017-04-19T06:36:31.828Z,90.90
2017-04-19T06:37:31.350Z,91.30
2017-04-19T06:38:30.819Z,90.30
2017-04-19T06:39:31.025Z,89.20
2017-04-19T06:40:30.659Z,90.30
2017-04-19T06:41:30.125Z,90.00
2017-04-19T06:42:29.591Z,90.70
2017-04-19T06:43:31.623Z,90.20
2017-04-19T06:44:31.176Z,89.30
2017-04-19T06:45:30.671Z,88.50
2017-04-19T06:46:33.313Z,87.90
2017-04-19T06:47:33.058Z,88.70
2017-04-19T06:48:32.542Z,88.40
2017-04-19T06:49:32.015Z,87.90
2017-04-19T06:50:31.570Z,88.20
2017-04-19T06:51:31.046Z,87.40
2017-04-19T06:52:30.524Z,87.30
2017-04-19T06:53:30.030Z,87.40
2017-04-19T06:54:29.535Z,87.70
2017-04-19T06:55:29.051Z,87.80
2017-04-19T06:56:28.665Z,87.60
2017-04-19T06:57:28.088Z,87.40
2017-04-19T06:58:27.534Z,87.50
2017-04-19T06:59:27.005Z,87.40
2017-04-19T07:00:26.477Z,87.40
2017-04-19T07:01:26.074Z,87.50
2017-04-19T07:02:25.968Z,87.30
2017-04-19T07:03:25.425Z,87.40
2017-04-19T07:04:24.913Z,87.00
2017-04-19T07:05:25.127Z,86.80
2017-04-19T07:06:24.609Z,85.80
2017-04-19T07:07:24.128Z,84.90
2017-04-19T07:08:24.052Z,84.50
2017-04-19T07:09:23.585Z,83.80
2017-04-19T07:10:23.042Z,83.70
2017-04-19T07:11:22.528Z,83.60
2017-04-19T07:12:22.031Z,83.90
2017-04-19T07:13:27.348Z,84.30
2017-04-19T07:14:27.360Z,84.40
2017-04-19T07:15:26.836Z,85.10
2017-04-19T07:16:26.312Z,85.90
2017-04-19T07:17:26.551Z,85.30
2017-04-19T07:18:26.056Z,84.10
2017-04-19T07:19:26.318Z,83.20
2017-04-19T07:20:25.848Z,82.90
2017-04-19T07:21:25.292Z,83.10
2017-04-19T07:22:25.004Z,83.10
2017-04-19T07:23:24.953Z,83.00
2017-04-19T07:24:25.105Z,83.90
2017-04-19T07:25:25.097Z,84.20
2017-04-19T07:26:24.616Z,83.90
2017-04-19T07:27:24.099Z,83.20
2017-04-19T07:28:23.744Z,81.50
2017-04-19T07:29:23.196Z,80.80
2017-04-19T07:30:22.691Z,80.20
2017-04-19T07:31:22.160Z,79.90
2017-04-19T07:32:21.649Z,79.80
2017-04-19T07:33:22.006Z,80.00
2017-04-19T07:34:21.452Z,80.30
2017-04-19T07:35:20.940Z,80.40
2017-04-19T07:36:21.494Z,80.90
2017-04-19T07:37:20.960Z,80.00
2017-04-19T07:38:21.291Z,79.20
2017-04-19T07:39:21.542Z,79.30
2017-04-19T07:40:21.199Z,79.20
2017-04-19T07:41:20.716Z,79.00
2017-04-19T07:42:20.251Z,78.10
2017-04-19T07:43:19.824Z,78.10
2017-04-19T07:44:19.317Z,78.20
2017-04-19T07:45:18.871Z,77.70
2017-04-19T07:46:18.416Z,76.50
2017-04-19T07:47:17.904Z,75.90
2017-04-19T07:48:17.365Z,75.90
2017-04-19T07:49:16.805Z,75.70
2017-04-19T07:50:16.278Z,75.60
2017-04-19T07:51:15.790Z,75.80
2017-04-19T07:52:15.314Z,75.40
2017-04-19T07:53:14.889Z,75.30
2017-04-19T07:54:15.188Z,75.00
2017-04-19T07:55:14.719Z,74.80
2017-04-19T07:56:14.174Z,74.60
2017-04-19T07:57:13.777Z,74.80
2017-04-19T07:58:13.303Z,74.70
2017-04-19T07:59:13.056Z,74.20
2017-04-19T08:00:12.598Z,74.30
2017-04-19T08:01:12.108Z,74.50
2017-04-19T08:02:11.602Z,73.30
2017-04-19T08:03:11.782Z,71.10
2017-04-19T08:04:11.339Z,70.40
2017-04-19T08:05:11.961Z,70.60
2017-04-19T08:06:11.417Z,70.40
2017-04-19T08:07:10.848Z,70.50
2017-04-19T08:08:10.477Z,71.10
2017-04-19T08:09:09.991Z,71.90
2017-04-19T08:10:10.274Z,71.90
2017-04-19T08:11:10.041Z,72.60
2017-04-19T08:12:09.579Z,72.60
2017-04-19T08:13:09.090Z,72.30
2017-04-19T08:14:12.582Z,71.80
2017-04-19T08:15:12.612Z,71.10
2017-04-19T08:16:12.356Z,70.50
2017-04-19T08:17:11.943Z,70.20
2017-04-19T08:18:11.636Z,70.10
2017-04-19T08:19:11.253Z,69.20
2017-04-19T08:20:10.799Z,68.10
2017-04-19T08:21:11.048Z,67.40
2017-04-19T08:22:10.961Z,67.40
2017-04-19T08:23:10.525Z,67.80
2017-04-19T08:24:10.087Z,67.90
2017-04-19T08:25:09.691Z,67.00
2017-04-19T08:26:09.565Z,66.90
2017-04-19T08:27:09.136Z,66.90
2017-04-19T08:28:08.841Z,66.30
2017-04-19T08:29:08.351Z,66.00
2017-04-19T08:30:07.933Z,66.40
2017-04-19T08:31:07.479Z,67.70
2017-04-19T08:32:07.009Z,67.60
2017-04-19T08:33:06.544Z,66.20
2017-04-19T08:34:07.166Z,65.70
2017-04-19T08:35:06.758Z,66.00
2017-04-19T08:36:06.308Z,66.40
2017-04-19T08:37:05.885Z,65.90
2017-04-19T08:38:05.413Z,64.60
2017-04-19T08:39:08.334Z,64.50
2017-04-19T08:40:07.953Z,64.60
2017-04-19T08:41:07.478Z,64.70
2017-04-19T08:42:07.037Z,65.00
2017-04-19T08:43:06.758Z,64.70
2017-04-19T08:44:07.067Z,63.10
2017-04-19T08:45:06.816Z,62.80
2017-04-19T08:46:06.345Z,62.80
2017-04-19T08:47:05.852Z,62.90
2017-04-19T08:48:06.151Z,61.50
2017-04-19T08:49:05.731Z,61.70
2017-04-19T08:50:05.745Z,62.00
2017-04-19T08:51:05.453Z,62.60
2017-04-19T08:52:05.064Z,63.00
2017-04-19T08:53:04.695Z,63.00
2017-04-19T08:54:04.176Z,63.30
2017-04-19T08:55:03.743Z,64.20
2017-04-19T08:56:03.295Z,63.70
2017-04-19T08:57:03.190Z,63.50
2017-04-19T08:58:02.724Z,63.20
2017-04-19T08:59:02.264Z,63.10
2017-04-19T09:00:01.776Z,63.50
2017-04-19T09:01:01.309Z,63.30
2017-04-19T09:02:00.895Z,63.50
2017-04-19T09:03:00.644Z,63.50
2017-04-19T09:04:00.159Z,63.30
2017-04-19T09:04:59.695Z,62.00
2017-04-19T09:05:59.373Z,62.00
2017-04-19T09:06:58.964Z,63.50
2017-04-19T09:07:58.568Z,62.50
2017-04-19T09:08:58.291Z,61.50
2017-04-19T09:09:57.910Z,59.80
2017-04-19T09:10:57.570Z,59.20
2017-04-19T09:11:57.088Z,58.70
2017-04-19T09:12:56.649Z,58.80
2017-04-19T09:13:56.171Z,57.50
2017-04-19T09:14:55.991Z,57.40
2017-04-19T09:15:55.617Z,57.10
2017-04-19T09:16:55.153Z,56.70
2017-04-19T09:17:54.764Z,56.90
2017-04-19T09:18:54.322Z,57.10
2017-04-19T09:19:53.912Z,57.50
2017-04-19T09:20:53.795Z,57.90
2017-04-19T09:21:53.294Z,57.80
2017-04-19T09:22:52.817Z,57.70
2017-04-19T09:23:52.385Z,57.90
2017-04-19T09:24:52.855Z,58.30
2017-04-19T09:25:52.484Z,58.50
2017-04-19T09:26:52.424Z,58.40
2017-04-19T09:27:51.927Z,58.70
2017-04-19T09:28:51.413Z,58.90
2017-04-19T09:29:50.967Z,58.70
2017-04-19T09:30:50.503Z,58.60
2017-04-19T09:31:50.716Z,58.80
2017-04-19T09:32:50.265Z,59.20
2017-04-19T09:33:52.064Z,59.70
2017-04-19T09:34:52.671Z,60.00
2017-04-19T09:35:52.205Z,60.50
2017-04-19T09:36:51.830Z,60.80
2017-04-19T09:37:51.527Z,60.60
2017-04-19T09:38:54.530Z,60.40
2017-04-19T09:39:54.796Z,60.80
2017-04-19T09:40:54.401Z,60.70
2017-04-19T09:41:53.949Z,60.60
2017-04-19T09:42:53.696Z,59.00
2017-04-19T09:43:53.222Z,59.20
2017-04-19T09:44:53.175Z,58.50
2017-04-19T09:45:52.695Z,56.80
2017-04-19T09:46:52.155Z,56.70
2017-04-19T09:47:51.692Z,57.20
2017-04-19T09:48:51.492Z,57.50
2017-04-19T09:49:51.005Z,57.30
2017-04-19T09:50:50.565Z,56.90
2017-04-19T09:51:50.126Z,57.30
2017-04-19T09:52:49.655Z,56.40
2017-04-19T09:53:49.183Z,57.40
2017-04-19T09:54:48.936Z,57.30
2017-04-19T09:55:48.421Z,55.80
2017-04-19T09:56:47.940Z,54.10
2017-04-19T09:57:47.594Z,53.40
2017-04-19T09:58:47.159Z,53.00
2017-04-19T09:59:46.690Z,52.60
2017-04-19T10:00:46.540Z,52.70
2017-04-19T10:01:46.092Z,52.40
2017-04-19T10:02:45.680Z,52.10
2017-04-19T10:03:45.190Z,52.70
2017-04-19T10:04:44.755Z,53.10
2017-04-19T10:05:44.268Z,53.40
2017-04-19T10:06:43.986Z,53.50
2017-04-19T10:07:43.512Z,53.80
2017-04-19T10:08:43.072Z,53.70
2017-04-19T10:09:43.283Z,53.80
2017-04-19T10:10:42.916Z,53.80
2017-04-19T10:11:43.257Z,53.40
2017-04-19T10:12:42.818Z,53.40
2017-04-19T10:13:42.395Z,53.50
2017-04-19T10:14:41.979Z,53.30
2017-04-19T10:15:41.840Z,53.30
2017-04-19T10:16:41.344Z,54.00
2017-04-19T10:17:41.075Z,53.70
2017-04-19T10:18:40.620Z,54.10
2017-04-19T10:19:40.180Z,54.40
2017-04-19T10:20:43.299Z,54.90
2017-04-19T10:21:42.773Z,55.30
2017-04-19T10:22:42.557Z,54.80
2017-04-19T10:23:42.005Z,54.50
2017-04-19T10:24:42.241Z,54.60
2017-04-19T10:25:42.448Z,55.80
2017-04-19T10:26:41.927Z,55.80
2017-04-19T10:27:41.396Z,55.70
2017-04-19T10:28:41.771Z,56.00
2017-04-19T10:29:41.250Z,55.30
2017-04-19T10:30:40.704Z,55.10
2017-04-19T10:31:40.169Z,55.00
2017-04-19T10:32:39.646Z,55.30
2017-04-19T10:33:39.916Z,55.30
2017-04-19T10:34:39.470Z,55.50
2017-04-19T10:35:38.925Z,55.80
2017-04-19T10:36:41.710Z,55.60
2017-04-19T10:37:41.304Z,55.50
2017-04-19T10:38:41.570Z,56.30
2017-04-19T10:39:41.335Z,57.30
2017-04-19T10:40:40.840Z,58.10
2017-04-19T10:41:43.742Z,58.80
2017-04-19T10:42:43.186Z,58.80
2017-04-19T10:43:42.644Z,59.20
2017-04-19T10:44:42.304Z,60.00
2017-04-19T10:45:41.766Z,60.70
2017-04-19T10:46:41.983Z,62.00
2017-04-19T10:47:41.500Z,60.80
2017-04-19T10:48:41.025Z,60.30
2017-04-19T10:49:40.486Z,61.40
2017-04-19T10:50:40.190Z,59.80
2017-04-19T10:51:39.663Z,58.30
2017-04-19T10:52:39.865Z,58.00
2017-04-19T10:53:39.331Z,58.40
2017-04-19T10:54:38.795Z,58.90
2017-04-19T10:55:38.255Z,59.30
2017-04-19T10:56:38.596Z,58.10
2017-04-19T10:57:38.131Z,57.70
2017-04-19T10:58:37.943Z,58.30
2017-04-19T10:59:37.412Z,57.80
2017-04-19T11:00:36.896Z,57.60
2017-04-19T11:01:36.374Z,57.80
2017-04-19T11:02:36.264Z,57.20
2017-04-19T11:03:35.733Z,55.90
2017-04-19T11:04:35.228Z,55.20
2017-04-19T11:05:34.716Z,55.30
2017-04-19T11:06:34.222Z,55.30
2017-04-19T11:07:33.651Z,54.70
2017-04-19T11:08:33.331Z,54.70
2017-04-19T11:09:33.555Z,55.00
2017-04-19T11:10:33.021Z,54.90
2017-04-19T11:11:32.504Z,54.70
2017-04-19T11:12:32.292Z,54.40
2017-04-19T11:13:31.759Z,54.60
2017-04-19T11:14:31.374Z,54.40
2017-04-19T11:15:30.832Z,54.70
2017-04-19T11:16:30.294Z,53.10
2017-04-19T11:17:30.535Z,52.20
2017-04-19T11:18:30.051Z,53.20
2017-04-19T11:19:29.539Z,52.70
2017-04-19T11:20:29.223Z,52.30
2017-04-19T11:21:28.730Z,51.70
2017-04-19T11:22:28.239Z,51.80
2017-04-19T11:23:27.694Z,51.30
2017-04-19T11:24:27.897Z,51.60
2017-04-19T11:25:28.127Z,51.90
2017-04-19T11:26:27.828Z,52.40
2017-04-19T11:27:27.300Z,53.00
2017-04-19T11:28:26.745Z,51.70
2017-04-19T11:29:26.290Z,51.80
2017-04-19T11:30:25.789Z,51.70
2017-04-19T11:31:26.104Z,51.90
2017-04-19T11:32:26.037Z,52.50
2017-04-19T11:33:25.531Z,52.00
2017-04-19T11:34:25.052Z,51.50
2017-04-19T11:35:24.570Z,51.70
2017-04-19T11:36:24.020Z,51.80
2017-04-19T11:37:23.509Z,51.60
2017-04-19T11:38:22.985Z,51.40
2017-04-19T11:39:22.428Z,51.00
2017-04-19T11:40:21.892Z,50.80
2017-04-19T11:41:21.343Z,51.10
2017-04-19T11:42:20.795Z,51.30
2017-04-19T11:43:20.260Z,51.20
2017-04-19T11:44:20.029Z,50.90
2017-04-19T11:45:19.504Z,51.10
2017-04-19T11:46:18.972Z,51.60
2017-04-19T11:47:18.463Z,51.90
2017-04-19T11:48:17.974Z,51.90
2017-04-19T11:49:17.425Z,51.70
2017-04-19T11:50:16.967Z,52.00
2017-04-19T11:51:16.404Z,51.60
2017-04-19T11:52:16.628Z,52.60
2017-04-19T11:53:16.147Z,53.30
2017-04-19T11:54:15.582Z,54.40
2017-04-19T11:55:15.044Z,55.10
2017-04-19T11:56:14.813Z,55.70
2017-04-19T11:57:14.268Z,56.00
2017-04-19T11:58:14.216Z,56.60
2017-04-19T11:59:13.754Z,57.30
2017-04-19T12:00:13.255Z,58.00
2017-04-19T12:01:12.716Z,58.50
2017-04-19T12:02:12.308Z,59.20
2017-04-19T12:03:11.785Z,59.60
2017-04-19T12:04:11.287Z,59.80
2017-04-19T12:05:10.701Z,59.80
2017-04-19T12:06:10.172Z,59.80
2017-04-19T12:07:09.640Z,60.10
2017-04-19T12:08:09.255Z,59.60
2017-04-19T12:09:09.447Z,59.00
2017-04-19T12:10:08.928Z,58.90
2017-04-19T12:11:08.413Z,58.50
2017-04-19T12:12:07.861Z,58.60
2017-04-19T12:13:07.297Z,58.20
2017-04-19T12:14:07.167Z,58.20
2017-04-19T12:15:06.600Z,58.30
2017-04-19T12:16:06.171Z,58.30
2017-04-19T12:17:05.920Z,58.20
2017-04-19T12:18:05.407Z,57.70
2017-04-19T12:19:04.874Z,57.50
2017-04-19T12:20:04.733Z,57.40
2017-04-19T12:21:04.172Z,57.30
2017-04-19T12:22:04.452Z,56.90
2017-04-19T12:23:04.026Z,57.30
2017-04-19T12:24:04.680Z,56.80
2017-04-19T12:25:04.216Z,56.70
2017-04-19T12:26:03.815Z,56.60
2017-04-19T12:27:03.320Z,56.80
2017-04-19T12:28:02.763Z,56.70
2017-04-19T12:29:02.246Z,56.70
2017-04-19T12:30:02.652Z,56.70
2017-04-19T12:31:02.237Z,56.70
2017-04-19T12:32:02.237Z,56.70
2017-04-19T12:33:04.539Z,57.00
2017-04-19T12:34:04.069Z,57.20
2017-04-19T12:35:03.616Z,57.50
2017-04-19T12:36:03.281Z,57.10
2017-04-19T12:37:03.141Z,57.20
2017-04-19T12:38:02.902Z,58.20
2017-04-19T12:39:02.397Z,58.10
2017-04-19T12:40:01.896Z,58.50
2017-04-19T12:41:01.570Z,58.60
2017-04-19T12:42:01.518Z,58.70
2017-04-19T12:43:00.989Z,58.80
2017-04-19T12:44:00.583Z,59.20
2017-04-19T12:45:01.499Z,60.00
2017-04-19T12:46:01.991Z,59.50
2017-04-19T12:47:02.087Z,59.10
2017-04-19T12:48:01.816Z,58.70
2017-04-19T12:49:01.401Z,58.40
2017-04-19T12:50:06.573Z,57.90
2017-04-19T12:51:06.274Z,57.50
2017-04-19T12:52:06.332Z,57.30
2017-04-19T12:53:05.892Z,57.30
2017-04-19T12:54:05.541Z,57.40
2017-04-19T12:55:05.172Z,57.70
2017-04-19T12:56:04.842Z,57.20